createdAt,value
2022-07-27T00:01:01.949Z,0.95
2022-07-27T00:03:29.605Z,0.70
2022-07-27T00:05:57.295Z,0.68
2022-07-27T00:08:24.918Z,1.42
2022-07-27T00:10:52.577Z,0.80
2022-07-27T00:13:24.046Z,0.85
2022-07-27T00:15:51.715Z,0.80
2022-07-27T00:18:19.339Z,0.75
2022-07-27T00:20:47.137Z,1.25
2022-07-27T00:23:14.733Z,1.10
2022-07-27T00:25:42.445Z,0.73
2022-07-27T00:28:10.028Z,0.95
2022-07-27T00:30:39.008Z,0.98
2022-07-27T00:33:06.739Z,0.80
2022-07-27T00:35:34.385Z,0.80
2022-07-27T00:38:03.580Z,0.63
2022-07-27T00:40:31.683Z,0.65
2022-07-27T00:42:59.439Z,0.90
2022-07-27T00:45:27.021Z,0.90
2022-07-27T00:47:56.022Z,0.80
2022-07-27T00:50:23.793Z,1.05
2022-07-27T00:52:51.414Z,0.80
2022-07-27T00:55:19.027Z,0.70
2022-07-27T00:57:58.701Z,0.70
2022-07-27T01:00:27.388Z,0.90
2022-07-27T01:02:57.263Z,0.60
2022-07-27T01:05:35.971Z,1.38
2022-07-27T01:08:06.641Z,0.80
2022-07-27T01:10:34.393Z,0.65
2022-07-27T01:13:01.986Z,0.60
2022-07-27T01:15:54.776Z,1.05
2022-07-27T01:18:30.652Z,0.85
2022-07-27T01:20:58.451Z,0.80
2022-07-27T01:23:27.603Z,1.38
2022-07-27T01:25:55.215Z,0.90
2022-07-27T01:28:22.866Z,0.80
2022-07-27T01:30:51.090Z,0.70
2022-07-27T01:33:25.787Z,0.90
2022-07-27T01:36:03.627Z,1.00
2022-07-27T01:38:32.677Z,1.00
2022-07-27T01:41:00.266Z,1.02
2022-07-27T01:43:27.922Z,1.20
2022-07-27T01:45:56.110Z,0.63
2022-07-27T01:48:23.846Z,0.90
2022-07-27T01:50:51.993Z,0.98
2022-07-27T01:53:19.606Z,0.85
2022-07-27T01:55:48.713Z,0.80
2022-07-27T01:58:16.315Z,0.80
2022-07-27T02:00:43.922Z,0.88
2022-07-27T02:03:11.850Z,1.15
2022-07-27T02:05:39.565Z,1.10
2022-07-27T02:08:07.360Z,0.82
2022-07-27T02:10:35.126Z,1.00
2022-07-27T02:13:22.546Z,0.82
2022-07-27T02:15:50.734Z,0.80
2022-07-27T02:18:32.743Z,0.80
2022-07-27T02:21:04.557Z,0.75
2022-07-27T02:23:33.275Z,1.25
2022-07-27T02:26:01.198Z,1.00
2022-07-27T02:28:30.248Z,0.63
2022-07-27T02:30:57.877Z,1.00
2022-07-27T02:33:25.472Z,0.57
2022-07-27T02:35:53.048Z,0.70
2022-07-27T02:38:30.053Z,0.95
2022-07-27T02:40:58.071Z,1.17
2022-07-27T02:43:25.672Z,1.05
2022-07-27T02:45:54.683Z,0.80
2022-07-27T02:48:22.966Z,0.73
2022-07-27T02:50:50.596Z,0.70
2022-07-27T02:53:18.232Z,1.50
2022-07-27T02:55:45.787Z,0.90
2022-07-27T02:58:13.367Z,0.80
2022-07-27T03:00:40.949Z,0.82
2022-07-27T03:03:10.037Z,0.60
2022-07-27T03:05:37.715Z,1.25
2022-07-27T03:08:05.657Z,0.90
2022-07-27T03:10:33.249Z,0.77
2022-07-27T03:13:00.872Z,1.02
2022-07-27T03:15:29.581Z,1.00
2022-07-27T03:17:57.398Z,0.70
2022-07-27T03:20:26.349Z,0.70
2022-07-27T03:22:54.510Z,0.75
2022-07-27T03:25:22.223Z,1.38
2022-07-27T03:27:49.804Z,0.98
2022-07-27T03:30:17.420Z,0.90
2022-07-27T03:32:45.149Z,0.77
2022-07-27T03:35:13.050Z,1.10
2022-07-27T03:37:42.092Z,0.90
2022-07-27T03:40:10.467Z,0.82
2022-07-27T03:42:38.137Z,0.90
2022-07-27T03:45:06.214Z,0.90
2022-07-27T03:47:33.918Z,1.35
2022-07-27T03:50:01.456Z,0.90
2022-07-27T03:52:29.577Z,0.88
2022-07-27T03:54:58.554Z,0.90
2022-07-27T03:57:26.212Z,0.90
2022-07-27T04:00:15.850Z,0.77
2022-07-27T04:02:43.658Z,1.05
2022-07-27T04:05:11.937Z,0.88
2022-07-27T04:07:39.676Z,1.08
2022-07-27T04:10:09.140Z,1.33
2022-07-27T04:12:37.722Z,1.00
2022-07-27T04:15:05.664Z,1.40
2022-07-27T04:17:55.602Z,1.08
2022-07-27T04:20:47.635Z,1.10
2022-07-27T04:23:15.264Z,1.20
2022-07-27T04:25:44.273Z,1.60
2022-07-27T04:28:12.553Z,1.23
2022-07-27T04:30:40.177Z,1.00
2022-07-27T04:33:07.903Z,1.55
2022-07-27T04:35:35.477Z,1.88
2022-07-27T04:38:03.155Z,1.45
2022-07-27T04:40:41.571Z,1.27
2022-07-27T04:43:10.622Z,2.08
2022-07-27T04:45:38.321Z,1.20
2022-07-27T04:48:06.499Z,1.63
2022-07-27T04:50:34.266Z,1.63
2022-07-27T04:53:01.914Z,1.50
2022-07-27T04:55:29.548Z,1.75
2022-07-27T04:57:57.192Z,1.30
2022-07-27T05:00:26.151Z,1.70
2022-07-27T05:02:53.739Z,1.80
2022-07-27T05:05:21.431Z,1.38
2022-07-27T05:07:49.129Z,2.45
2022-07-27T05:10:20.301Z,2.20
2022-07-27T05:12:48.676Z,2.10
2022-07-27T05:15:16.367Z,1.73
2022-07-27T05:17:45.333Z,1.73
2022-07-27T05:20:13.135Z,2.05
2022-07-27T05:23:05.870Z,1.95
2022-07-27T05:25:33.536Z,2.50
2022-07-27T05:28:01.101Z,2.10
2022-07-27T05:30:29.073Z,2.13
2022-07-27T05:32:58.097Z,2.35
2022-07-27T05:35:25.828Z,2.15
2022-07-27T05:37:53.397Z,1.88
2022-07-27T05:40:20.976Z,2.17
2022-07-27T05:42:48.745Z,2.38
2022-07-27T05:45:16.353Z,2.70
2022-07-27T05:47:43.997Z,2.33
2022-07-27T05:50:12.938Z,2.30
2022-07-27T05:52:40.633Z,2.47
2022-07-27T05:55:08.585Z,3.00
2022-07-27T05:57:36.155Z,2.53
2022-07-27T06:00:03.980Z,1.77
2022-07-27T06:02:39.345Z,1.27
2022-07-27T06:05:09.414Z,1.38
2022-07-27T06:07:59.743Z,1.65
2022-07-27T06:10:27.833Z,2.45
2022-07-27T06:12:55.508Z,1.90
2022-07-27T06:15:23.211Z,1.80
2022-07-27T06:17:53.157Z,1.98
2022-07-27T06:20:20.935Z,1.90
2022-07-27T06:22:51.057Z,1.70
2022-07-27T06:25:19.236Z,1.70
2022-07-27T06:27:46.938Z,2.08
2022-07-27T06:30:15.064Z,2.10
2022-07-27T06:32:43.692Z,1.88
2022-07-27T06:35:11.379Z,2.10
2022-07-27T06:37:44.054Z,2.00
2022-07-27T06:40:14.247Z,2.28
2022-07-27T06:42:41.930Z,1.88
2022-07-27T06:45:34.414Z,2.10
2022-07-27T06:48:02.265Z,1.95
2022-07-27T06:50:29.850Z,1.60
2022-07-27T06:52:57.496Z,1.65
2022-07-27T06:55:26.488Z,2.08
2022-07-27T06:57:54.082Z,1.60
2022-07-27T07:00:21.857Z,1.77
2022-07-27T07:02:53.040Z,1.35
2022-07-27T07:05:20.988Z,1.80
2022-07-27T07:07:48.693Z,2.00
2022-07-27T07:10:16.271Z,1.42
2022-07-27T07:12:45.224Z,1.58
2022-07-27T07:15:13.290Z,1.98
2022-07-27T07:17:40.965Z,2.97
2022-07-27T07:20:08.952Z,1.75
2022-07-27T07:22:36.668Z,1.90
2022-07-27T07:25:04.358Z,1.30
2022-07-27T07:27:32.316Z,1.52
2022-07-27T07:30:02.808Z,1.45
2022-07-27T07:32:33.761Z,1.17
2022-07-27T07:35:03.634Z,1.67
2022-07-27T07:37:33.886Z,2.22
2022-07-27T07:40:18.762Z,1.98
2022-07-27T07:42:53.517Z,1.58
2022-07-27T07:45:23.024Z,1.20
2022-07-27T07:50:18.179Z,1.00
2022-07-27T07:52:45.737Z,1.40
2022-07-27T07:55:13.415Z,1.50
2022-07-27T07:57:41.060Z,1.08
2022-07-27T08:00:10.009Z,0.85
2022-07-27T08:02:45.558Z,0.60
2022-07-27T08:05:13.318Z,0.50
2022-07-27T08:07:47.469Z,0.82
2022-07-27T08:10:15.336Z,0.80
2022-07-27T08:12:43.795Z,0.80
2022-07-27T08:15:11.738Z,1.10
2022-07-27T08:17:39.374Z,0.50
2022-07-27T08:20:09.831Z,0.80
2022-07-27T08:22:37.403Z,0.80
2022-07-27T08:25:05.380Z,0.80
2022-07-27T08:27:40.642Z,0.90
2022-07-27T08:30:08.974Z,0.90
2022-07-27T08:32:47.130Z,1.08
2022-07-27T08:35:18.259Z,0.70
2022-07-27T08:37:46.021Z,0.60
2022-07-27T08:43:02.345Z,0.70
2022-07-27T08:45:30.674Z,0.65
2022-07-27T08:47:58.330Z,0.57
2022-07-27T08:50:30.198Z,0.70
2022-07-27T08:53:00.130Z,0.57
2022-07-27T08:55:27.891Z,0.60
2022-07-27T08:57:59.177Z,0.90
2022-07-27T09:00:30.351Z,0.63
2022-07-27T09:02:58.019Z,0.50
2022-07-27T09:05:27.822Z,0.60
2022-07-27T09:10:33.104Z,0.90
2022-07-27T09:13:00.769Z,0.60
2022-07-27T09:15:34.450Z,0.47
2022-07-27T09:18:08.365Z,0.60
2022-07-27T09:20:37.746Z,0.52
2022-07-27T09:28:30.249Z,0.57
2022-07-27T09:31:05.399Z,0.60
2022-07-27T09:33:33.699Z,0.80
2022-07-27T09:36:02.906Z,0.50
2022-07-27T09:38:30.563Z,0.68
2022-07-27T09:40:59.639Z,0.40
2022-07-27T09:46:16.408Z,0.47
2022-07-27T09:48:56.406Z,0.50
2022-07-27T09:56:41.376Z,0.40
2022-07-27T09:59:08.998Z,0.43
2022-07-27T10:01:47.648Z,0.50
2022-07-27T10:04:17.082Z,0.50
2022-07-27T10:07:01.685Z,0.60
2022-07-27T10:09:35.881Z,0.40
2022-07-27T10:12:04.644Z,0.70
2022-07-27T10:14:32.778Z,0.40
2022-07-27T10:17:00.400Z,0.50
2022-07-27T10:19:29.095Z,0.95
2022-07-27T10:21:58.151Z,0.50
2022-07-27T10:24:27.011Z,0.63
2022-07-27T10:26:54.731Z,0.60
2022-07-27T10:29:23.250Z,0.60
2022-07-27T10:32:00.718Z,0.57
2022-07-27T10:34:34.844Z,0.55
2022-07-27T10:37:12.936Z,0.73
2022-07-27T10:39:41.054Z,0.50
2022-07-27T10:42:22.173Z,0.60
2022-07-27T10:44:52.829Z,0.20
2022-07-27T10:47:28.682Z,0.55
2022-07-27T10:50:10.522Z,0.40
2022-07-27T10:52:43.110Z,0.52
2022-07-27T10:55:11.628Z,0.65
2022-07-27T10:57:39.215Z,0.75
2022-07-27T11:00:13.575Z,0.57
2022-07-27T11:02:43.910Z,0.73
2022-07-27T11:05:32.929Z,0.55
2022-07-27T11:13:16.996Z,0.40
2022-07-27T11:15:55.916Z,0.55
2022-07-27T11:18:28.376Z,0.50
2022-07-27T11:21:10.983Z,0.77
2022-07-27T11:23:51.031Z,0.70
2022-07-27T11:26:20.049Z,0.63
2022-07-27T11:28:47.638Z,0.88
2022-07-27T11:31:27.611Z,0.70
2022-07-27T11:34:03.015Z,0.50
2022-07-27T11:36:43.994Z,0.75
2022-07-27T11:39:14.864Z,1.00
2022-07-27T11:44:31.261Z,0.80
2022-07-27T11:47:02.116Z,0.90
2022-07-27T11:49:30.499Z,0.77
2022-07-27T11:51:58.698Z,0.90
2022-07-27T11:54:28.041Z,0.85
2022-07-27T11:59:23.179Z,0.90
2022-07-27T12:01:51.573Z,0.98
2022-07-27T12:04:21.395Z,1.20
2022-07-27T12:07:07.813Z,0.88
2022-07-27T12:09:39.017Z,0.93
2022-07-27T12:12:12.247Z,1.08
2022-07-27T12:14:40.350Z,1.40
2022-07-27T12:17:09.139Z,1.52
2022-07-27T12:19:36.946Z,1.17
2022-07-27T12:22:07.809Z,1.13
2022-07-27T12:24:38.580Z,1.30
2022-07-27T12:27:07.170Z,0.85
2022-07-27T12:29:35.067Z,1.00
2022-07-27T12:32:03.347Z,1.08
2022-07-27T12:34:44.921Z,0.82
2022-07-27T12:37:12.849Z,1.17
2022-07-27T12:39:43.909Z,1.10
2022-07-27T12:42:12.007Z,1.15
2022-07-27T12:44:40.194Z,1.33
2022-07-27T12:47:27.989Z,1.38
2022-07-27T12:50:02.667Z,1.20
2022-07-27T12:52:30.348Z,1.67
2022-07-27T12:55:02.592Z,1.73
2022-07-27T12:57:54.049Z,1.60
2022-07-27T13:00:18.572Z,1.20
2022-07-27T13:02:46.407Z,1.27
2022-07-27T13:05:14.372Z,1.58
2022-07-27T13:07:43.078Z,1.73
2022-07-27T13:10:12.274Z,1.65
2022-07-27T13:15:13.346Z,1.38
2022-07-27T13:17:41.233Z,1.50
2022-07-27T13:20:10.400Z,1.00
2022-07-27T13:25:15.255Z,1.10
2022-07-27T13:27:46.001Z,1.23
2022-07-27T13:30:14.363Z,1.23
2022-07-27T13:32:42.139Z,0.90
2022-07-27T13:35:10.222Z,1.10
2022-07-27T13:37:37.845Z,0.80
2022-07-27T13:40:06.152Z,1.30
2022-07-27T13:42:33.810Z,1.30
2022-07-27T13:45:09.329Z,1.00
2022-07-27T13:47:38.454Z,1.50
2022-07-27T13:50:06.559Z,1.33
2022-07-27T13:52:34.298Z,1.10
2022-07-27T13:55:02.025Z,1.13
2022-07-27T13:57:29.792Z,1.08
2022-07-27T13:59:59.739Z,1.08
2022-07-27T14:02:28.842Z,1.63
2022-07-27T14:04:56.837Z,1.27
2022-07-27T14:07:28.171Z,0.90
2022-07-27T14:10:13.882Z,1.00
2022-07-27T14:12:41.550Z,0.95
2022-07-27T14:15:09.557Z,0.80
2022-07-27T14:17:38.609Z,1.00
2022-07-27T14:20:06.698Z,0.95
2022-07-27T14:22:34.284Z,0.93
2022-07-27T14:25:02.049Z,0.88
2022-07-27T14:27:36.532Z,1.10
2022-07-27T14:30:06.734Z,0.90
2022-07-27T14:32:34.691Z,1.00
2022-07-27T14:35:04.932Z,1.10
2022-07-27T14:37:34.290Z,0.90
2022-07-27T14:40:01.956Z,0.90
2022-07-27T14:42:29.598Z,0.77
2022-07-27T14:44:57.330Z,0.90
2022-07-27T14:47:25.099Z,0.80
2022-07-27T14:49:52.911Z,0.90
2022-07-27T14:52:22.175Z,0.80
2022-07-27T14:54:50.417Z,0.88
2022-07-27T14:57:18.038Z,0.98
2022-07-27T14:59:45.648Z,0.70
2022-07-27T15:02:13.334Z,0.85
2022-07-27T15:04:41.226Z,0.82
2022-07-27T15:07:08.908Z,1.10
2022-07-27T15:09:37.924Z,1.00
2022-07-27T15:12:06.162Z,1.00
2022-07-27T15:14:38.849Z,1.13
2022-07-27T15:17:07.105Z,0.90
2022-07-27T15:19:34.825Z,1.00
2022-07-27T15:22:02.480Z,0.80
2022-07-27T15:24:32.788Z,1.13
2022-07-27T15:27:05.436Z,0.80
2022-07-27T15:29:33.659Z,0.98
2022-07-27T15:32:01.369Z,0.80
2022-07-27T15:34:28.972Z,0.98
2022-07-27T15:36:56.933Z,0.90
2022-07-27T15:39:32.411Z,0.85
2022-07-27T15:42:00.421Z,0.82
2022-07-27T15:44:29.357Z,1.23
2022-07-27T15:46:57.406Z,0.73
2022-07-27T15:49:25.126Z,0.85
2022-07-27T15:51:52.764Z,0.80
2022-07-27T15:54:20.393Z,1.00
2022-07-27T15:56:47.956Z,1.10
2022-07-27T15:59:16.058Z,1.00
2022-07-27T16:01:45.468Z,0.98
2022-07-27T16:04:15.018Z,0.77
2022-07-27T16:06:42.670Z,0.98
2022-07-27T16:09:10.629Z,0.85
2022-07-27T16:11:38.527Z,0.85
2022-07-27T16:14:06.151Z,0.80
2022-07-27T16:16:33.879Z,0.93
2022-07-27T16:19:12.368Z,1.10
2022-07-27T16:21:54.616Z,0.90
2022-07-27T16:24:23.762Z,1.00
2022-07-27T16:26:51.415Z,0.57
2022-07-27T16:29:19.088Z,1.10
2022-07-27T16:31:46.819Z,0.93
2022-07-27T16:34:15.911Z,1.00
2022-07-27T16:36:43.548Z,0.80
2022-07-27T16:39:11.491Z,1.00
2022-07-27T16:41:39.402Z,0.80
2022-07-27T16:44:07.107Z,1.25
2022-07-27T16:46:34.747Z,0.80
2022-07-27T16:49:02.398Z,0.60
2022-07-27T16:51:31.449Z,0.77
2022-07-27T16:53:59.138Z,0.93
2022-07-27T16:56:26.887Z,0.80
2022-07-27T16:58:54.569Z,0.80
2022-07-27T17:01:30.289Z,0.85
2022-07-27T17:03:58.702Z,0.70
2022-07-27T17:06:26.539Z,0.80
2022-07-27T17:08:55.769Z,0.75
2022-07-27T17:11:23.756Z,0.82
2022-07-27T17:13:58.836Z,0.70
2022-07-27T17:16:27.301Z,0.70
2022-07-27T17:18:54.962Z,0.75
2022-07-27T17:21:22.719Z,0.82
2022-07-27T17:23:50.339Z,0.60
2022-07-27T17:26:19.534Z,0.77
2022-07-27T17:28:51.907Z,0.60
2022-07-27T17:31:21.345Z,0.77
2022-07-27T17:33:49.082Z,1.30
2022-07-27T17:36:17.542Z,0.95
2022-07-27T17:38:45.411Z,0.80
2022-07-27T17:41:13.135Z,0.80
2022-07-27T17:43:42.301Z,0.93
2022-07-27T17:48:37.529Z,0.80
2022-07-27T17:51:05.248Z,1.10
2022-07-27T17:53:32.914Z,0.90
2022-07-27T17:56:00.684Z,0.80
2022-07-27T17:58:30.430Z,0.95
2022-07-27T18:00:59.697Z,0.88
2022-07-27T18:03:31.027Z,1.35
2022-07-27T18:05:58.695Z,1.02
2022-07-27T18:08:26.275Z,1.05
2022-07-27T18:10:53.944Z,1.00
2022-07-27T18:13:21.618Z,1.00
2022-07-27T18:15:50.421Z,0.80
2022-07-27T18:18:20.264Z,1.00
2022-07-27T18:20:48.273Z,1.05
2022-07-27T18:23:15.989Z,1.17
2022-07-27T18:25:44.134Z,1.25
2022-07-27T18:28:12.065Z,1.27
2022-07-27T18:30:39.924Z,0.85
2022-07-27T18:33:07.684Z,1.15
2022-07-27T18:35:36.695Z,0.90
2022-07-27T18:38:07.848Z,1.00
2022-07-27T18:40:35.540Z,1.00
2022-07-27T18:43:03.257Z,0.90
2022-07-27T18:45:34.707Z,0.90
2022-07-27T18:48:02.833Z,1.02
2022-07-27T18:50:32.504Z,1.00
2022-07-27T18:53:04.698Z,0.90
2022-07-27T18:55:32.296Z,1.05
2022-07-27T18:57:59.974Z,1.08
2022-07-27T19:00:27.981Z,1.15
2022-07-27T19:02:58.357Z,1.42
2022-07-27T19:05:32.204Z,1.17
2022-07-27T19:08:12.974Z,1.45
2022-07-27T19:10:41.715Z,1.10
2022-07-27T19:13:09.333Z,1.10
2022-07-27T19:15:37.377Z,1.13
2022-07-27T19:18:05.080Z,1.27
2022-07-27T19:20:32.758Z,1.02
2022-07-27T19:23:00.811Z,1.10
2022-07-27T19:25:46.201Z,0.80
2022-07-27T19:28:16.993Z,0.90
2022-07-27T19:30:44.745Z,0.80
2022-07-27T19:33:12.380Z,1.10
2022-07-27T19:35:40.019Z,1.42
2022-07-27T19:38:08.394Z,1.05
2022-07-27T19:40:44.991Z,0.98
2022-07-27T19:43:13.275Z,1.17
2022-07-27T19:45:42.629Z,0.90
2022-07-27T19:48:10.502Z,1.08
2022-07-27T19:50:38.214Z,0.90
2022-07-27T19:53:05.848Z,0.95
2022-07-27T19:55:33.416Z,0.98
2022-07-27T19:58:01.110Z,1.20
2022-07-27T20:00:28.764Z,1.33
2022-07-27T20:02:57.785Z,1.10
2022-07-27T20:05:25.495Z,1.20
2022-07-27T20:07:53.386Z,1.00
2022-07-27T20:10:21.780Z,1.10
2022-07-27T20:12:49.411Z,1.10
2022-07-27T20:15:17.033Z,0.80
2022-07-27T20:17:44.756Z,1.00
2022-07-27T20:20:14.051Z,1.02
2022-07-27T20:22:41.690Z,1.40
2022-07-27T20:25:10.617Z,1.00
2022-07-27T20:28:05.022Z,1.48
2022-07-27T20:30:32.810Z,1.40
2022-07-27T20:33:00.451Z,1.25
2022-07-27T20:35:37.534Z,0.98
2022-07-27T20:38:05.760Z,1.30
2022-07-27T20:40:33.456Z,1.10
2022-07-27T20:43:01.170Z,1.73
2022-07-27T20:45:28.973Z,1.40
2022-07-27T20:48:02.114Z,1.27
2022-07-27T20:50:31.290Z,1.10
2022-07-27T20:53:03.963Z,1.10
2022-07-27T20:55:32.231Z,1.20
2022-07-27T20:57:59.871Z,1.40
2022-07-27T21:00:29.301Z,1.20
2022-07-27T21:05:26.860Z,1.05
2022-07-27T21:07:56.085Z,1.15
2022-07-27T21:10:23.745Z,1.10
2022-07-27T21:12:51.468Z,1.25
2022-07-27T21:15:19.072Z,1.88
2022-07-27T21:17:46.741Z,1.35
2022-07-27T21:20:15.016Z,1.27
2022-07-27T21:22:43.127Z,1.30
2022-07-27T21:25:15.320Z,1.63
2022-07-27T21:27:43.901Z,1.30
2022-07-27T21:30:13.821Z,1.17
2022-07-27T21:32:41.915Z,1.27
2022-07-27T21:35:09.810Z,1.20
2022-07-27T21:37:37.507Z,1.42
2022-07-27T21:40:05.297Z,1.48
2022-07-27T21:42:34.445Z,1.00
2022-07-27T21:45:02.063Z,1.40
2022-07-27T21:47:29.624Z,1.20
2022-07-27T21:49:57.289Z,1.30
2022-07-27T21:52:25.073Z,1.50
2022-07-27T21:54:52.689Z,1.40
2022-07-27T21:57:20.463Z,1.50
2022-07-27T21:59:49.514Z,1.70
2022-07-27T22:02:17.227Z,1.20
2022-07-27T22:04:44.836Z,1.20
2022-07-27T22:07:16.486Z,1.30
2022-07-27T22:09:49.304Z,1.35
2022-07-27T22:12:17.012Z,1.40
2022-07-27T22:14:44.673Z,1.33
2022-07-27T22:17:13.606Z,1.80
2022-07-27T22:19:41.482Z,1.20
2022-07-27T22:22:09.108Z,1.60
2022-07-27T22:24:36.751Z,1.80
2022-07-27T22:27:04.385Z,1.33
2022-07-27T22:29:34.502Z,1.63
2022-07-27T22:32:02.527Z,1.20
2022-07-27T22:34:31.566Z,1.73
2022-07-27T22:36:59.223Z,1.50
2022-07-27T22:39:26.869Z,1.30
2022-07-27T22:41:54.426Z,1.60
2022-07-27T22:44:22.573Z,1.25
2022-07-27T22:46:50.412Z,1.08
2022-07-27T22:49:18.246Z,1.25
2022-07-27T22:51:49.990Z,0.98
2022-07-27T22:54:20.827Z,1.35
2022-07-27T22:56:48.424Z,1.30
2022-07-27T22:59:16.151Z,1.70
2022-07-27T23:01:46.410Z,1.30
2022-07-27T23:04:16.305Z,1.58
2022-07-27T23:06:44.420Z,1.73
2022-07-27T23:09:13.458Z,1.30
2022-07-27T23:12:05.634Z,1.50
2022-07-27T23:14:33.753Z,1.25
2022-07-27T23:17:01.316Z,1.70
2022-07-27T23:19:29.194Z,1.80
2022-07-27T23:22:01.408Z,1.70
2022-07-27T23:24:30.954Z,1.45
2022-07-27T23:29:26.884Z,1.52
2022-07-27T23:32:04.542Z,1.23
2022-07-27T23:34:32.316Z,1.52
2022-07-27T23:37:00.428Z,1.30
2022-07-27T23:39:28.797Z,1.45
2022-07-27T23:41:57.771Z,1.10
2022-07-27T23:44:25.395Z,1.73
2022-07-27T23:46:53.201Z,1.10
2022-07-27T23:49:20.831Z,1.38
2022-07-27T23:51:48.536Z,0.90
2022-07-27T23:54:16.340Z,1.00
2022-07-27T23:56:44.174Z,1.20
2022-07-27T23:59:13.160Z,1.00
